sensor_id;sensor_type;location;lat;lon;timestamp;P1;durP1;ratioP1;P2;durP2;ratioP2
12650;SDS011;6390;49.400;8.670;2022-10-31T04:02:30;3.17;;;2.60;;
12650;SDS011;6390;49.400;8.670;2022-10-31T04:04:58;2.70;;;2.30;;
12650;SDS011;6390;49.400;8.670;2022-10-31T04:07:26;2.58;;;2.22;;
12650;SDS011;6390;49.400;8.670;2022-10-31T04:09:55;2.42;;;2.22;;
12650;SDS011;6390;49.400;8.670;2022-10-31T04:12:23;3.92;;;2.42;;
12650;SDS011;6390;49.400;8.670;2022-10-31T04:14:50;2.65;;;2.00;;
12650;SDS011;6390;49.400;8.670;2022-10-31T04:17:17;3.33;;;2.15;;
12650;SDS011;6390;49.400;8.670;2022-10-31T04:19:45;2.92;;;2.20;;
12650;SDS011;6390;49.400;8.670;2022-10-31T04:22:11;2.45;;;2.10;;
12650;SDS011;6390;49.400;8.670;2022-10-31T04:24:38;4.43;;;2.35;;
12650;SDS011;6390;49.400;8.670;2022-10-31T04:27:05;3.40;;;2.25;;
12650;SDS011;6390;49.400;8.670;2022-10-31T04:29:32;2.65;;;2.20;;
12650;SDS011;6390;49.400;8.670;2022-10-31T04:31:58;3.30;;;2.42;;
12650;SDS011;6390;49.400;8.670;2022-10-31T04:34:24;2.90;;;2.22;;
12650;SDS011;6390;49.400;8.670;2022-10-31T04:36:50;3.53;;;2.10;;
12650;SDS011;6390;49.400;8.670;2022-10-31T04:39:16;4.45;;;2.40;;
12650;SDS011;6390;49.400;8.670;2022-10-31T04:41:42;3.53;;;2.10;;
12650;SDS011;6390;49.400;8.670;2022-10-31T04:44:08;2.83;;;2.30;;
12650;SDS011;6390;49.400;8.670;2022-10-31T04:46:34;2.40;;;2.00;;
12650;SDS011;6390;49.400;8.670;2022-10-31T04:49:00;2.67;;;2.13;;
12650;SDS011;6390;49.400;8.670;2022-10-31T04:51:27;2.30;;;2.10;;
12650;SDS011;6390;49.400;8.670;2022-10-31T04:53:53;3.67;;;2.10;;
12650;SDS011;6390;49.400;8.670;2022-10-31T04:56:19;3.53;;;2.10;;
12650;SDS011;6390;49.400;8.670;2022-10-31T04:58:45;4.38;;;2.10;;
12650;SDS011;6390;49.400;8.670;2022-10-31T05:01:11;3.33;;;2.17;;
12650;SDS011;6390;49.400;8.670;2022-10-31T05:03:38;2.90;;;2.25;;
12650;SDS011;6390;49.400;8.670;2022-10-31T05:06:07;4.50;;;2.47;;
12650;SDS011;6390;49.400;8.670;2022-10-31T05:08:33;2.38;;;2.10;;
12650;SDS011;6390;49.400;8.670;2022-10-31T05:11:03;4.80;;;2.22;;
12650;SDS011;6390;49.400;8.670;2022-10-31T05:13:29;2.20;;;2.00;;
12650;SDS011;6390;49.400;8.670;2022-10-31T05:15:56;2.50;;;2.00;;
12650;SDS011;6390;49.400;8.670;2022-10-31T05:18:22;3.50;;;2.15;;
12650;SDS011;6390;49.400;8.670;2022-10-31T05:20:48;4.88;;;2.55;;
12650;SDS011;6390;49.400;8.670;2022-10-31T05:23:14;3.10;;;2.42;;
12650;SDS011;6390;49.400;8.670;2022-10-31T05:25:40;3.47;;;2.33;;
12650;SDS011;6390;49.400;8.670;2022-10-31T05:28:07;4.43;;;2.92;;
12650;SDS011;6390;49.400;8.670;2022-10-31T05:30:33;4.93;;;2.50;;
12650;SDS011;6390;49.400;8.670;2022-10-31T05:33:00;5.40;;;2.47;;
12650;SDS011;6390;49.400;8.670;2022-10-31T05:35:28;2.88;;;2.42;;
12650;SDS011;6390;49.400;8.670;2022-10-31T05:37:56;2.80;;;2.38;;
12650;SDS011;6390;49.400;8.670;2022-10-31T05:40:23;2.88;;;2.10;;
12650;SDS011;6390;49.400;8.670;2022-10-31T05:42:51;3.75;;;2.10;;
12650;SDS011;6390;49.400;8.670;2022-10-31T05:45:19;3.22;;;2.10;;
12650;SDS011;6390;49.400;8.670;2022-10-31T05:47:56;2.67;;;2.20;;
12650;SDS011;6390;49.400;8.670;2022-10-31T05:50:24;2.50;;;2.30;;
12650;SDS011;6390;49.400;8.670;2022-10-31T05:53:02;4.82;;;2.22;;
12650;SDS011;6390;49.400;8.670;2022-10-31T05:55:30;3.95;;;2.45;;
12650;SDS011;6390;49.400;8.670;2022-10-31T05:57:56;5.93;;;2.60;;
12650;SDS011;6390;49.400;8.670;2022-10-31T06:00:23;3.63;;;2.42;;
12650;SDS011;6390;49.400;8.670;2022-10-31T06:02:57;3.97;;;2.22;;
12650;SDS011;6390;49.400;8.670;2022-10-31T06:05:25;2.78;;;2.45;;
12650;SDS011;6390;49.400;8.670;2022-10-31T06:07:52;2.53;;;2.30;;
12650;SDS011;6390;49.400;8.670;2022-10-31T06:10:18;4.03;;;2.40;;
12650;SDS011;6390;49.400;8.670;2022-10-31T06:12:45;3.15;;;2.40;;
12650;SDS011;6390;49.400;8.670;2022-10-31T06:15:12;4.32;;;2.38;;
12650;SDS011;6390;49.400;8.670;2022-10-31T06:17:38;6.25;;;2.55;;
12650;SDS011;6390;49.400;8.670;2022-10-31T06:20:05;4.25;;;2.50;;
12650;SDS011;6390;49.400;8.670;2022-10-31T06:22:32;3.25;;;2.33;;
12650;SDS011;6390;49.400;8.670;2022-10-31T06:24:58;2.58;;;2.10;;
12650;SDS011;6390;49.400;8.670;2022-10-31T06:27:24;3.22;;;2.50;;
12650;SDS011;6390;49.400;8.670;2022-10-31T06:29:51;4.40;;;2.50;;
12650;SDS011;6390;49.400;8.670;2022-10-31T06:32:17;4.30;;;2.67;;
12650;SDS011;6390;49.400;8.670;2022-10-31T06:34:43;3.70;;;2.75;;
12650;SDS011;6390;49.400;8.670;2022-10-31T06:37:13;5.10;;;2.90;;
12650;SDS011;6390;49.400;8.670;2022-10-31T06:39:39;5.28;;;2.97;;
12650;SDS011;6390;49.400;8.670;2022-10-31T06:42:06;7.50;;;3.38;;
12650;SDS011;6390;49.400;8.670;2022-10-31T06:44:32;8.20;;;3.20;;
12650;SDS011;6390;49.400;8.670;2022-10-31T06:46:58;6.90;;;3.63;;
12650;SDS011;6390;49.400;8.670;2022-10-31T06:49:24;5.90;;;3.15;;
12650;SDS011;6390;49.400;8.670;2022-10-31T06:51:50;7.68;;;3.33;;
12650;SDS011;6390;49.400;8.670;2022-10-31T06:54:17;10.18;;;3.38;;
12650;SDS011;6390;49.400;8.670;2022-10-31T06:56:45;5.32;;;3.50;;
12650;SDS011;6390;49.400;8.670;2022-10-31T06:59:12;3.90;;;3.30;;
12650;SDS011;6390;49.400;8.670;2022-10-31T07:01:38;5.35;;;3.30;;
12650;SDS011;6390;49.400;8.670;2022-10-31T07:04:04;3.78;;;3.20;;
12650;SDS011;6390;49.400;8.670;2022-10-31T07:06:30;5.07;;;3.38;;
12650;SDS011;6390;49.400;8.670;2022-10-31T07:08:56;4.57;;;3.45;;
12650;SDS011;6390;49.400;8.670;2022-10-31T07:11:23;6.30;;;3.50;;
12650;SDS011;6390;49.400;8.670;2022-10-31T07:13:49;8.60;;;3.70;;
12650;SDS011;6390;49.400;8.670;2022-10-31T07:16:15;4.28;;;3.17;;
12650;SDS011;6390;49.400;8.670;2022-10-31T07:18:41;7.53;;;3.10;;
12650;SDS011;6390;49.400;8.670;2022-10-31T07:21:07;5.20;;;3.25;;
12650;SDS011;6390;49.400;8.670;2022-10-31T07:23:33;5.63;;;3.28;;
12650;SDS011;6390;49.400;8.670;2022-10-31T07:36:47;4.45;;;2.47;;
12650;SDS011;6390;49.400;8.670;2022-10-31T07:39:13;5.20;;;2.90;;
12650;SDS011;6390;49.400;8.670;2022-10-31T07:41:39;3.60;;;2.75;;
12650;SDS011;6390;49.400;8.670;2022-10-31T07:44:05;6.75;;;2.78;;
12650;SDS011;6390;49.400;8.670;2022-10-31T07:46:31;3.63;;;2.90;;
12650;SDS011;6390;49.400;8.670;2022-10-31T07:48:58;3.97;;;2.95;;
12650;SDS011;6390;49.400;8.670;2022-10-31T07:51:24;3.67;;;2.80;;
12650;SDS011;6390;49.400;8.670;2022-10-31T07:53:50;3.50;;;3.20;;
12650;SDS011;6390;49.400;8.670;2022-10-31T07:56:16;3.50;;;3.08;;
12650;SDS011;6390;49.400;8.670;2022-10-31T07:58:42;6.30;;;4.18;;
12650;SDS011;6390;49.400;8.670;2022-10-31T08:01:08;3.53;;;3.22;;
12650;SDS011;6390;49.400;8.670;2022-10-31T08:03:34;3.63;;;3.30;;
12650;SDS011;6390;49.400;8.670;2022-10-31T08:06:00;3.95;;;2.78;;
12650;SDS011;6390;49.400;8.670;2022-10-31T08:08:26;5.18;;;3.25;;
12650;SDS011;6390;49.400;8.670;2022-10-31T08:10:53;4.07;;;3.30;;
12650;SDS011;6390;49.400;8.670;2022-10-31T08:13:19;4.97;;;3.17;;
12650;SDS011;6390;49.400;8.670;2022-10-31T08:15:46;4.10;;;3.60;;
12650;SDS011;6390;49.400;8.670;2022-10-31T08:18:15;4.32;;;3.55;;
12650;SDS011;6390;49.400;8.670;2022-10-31T08:20:41;3.92;;;2.90;;
12650;SDS011;6390;49.400;8.670;2022-10-31T08:23:09;3.35;;;2.97;;
12650;SDS011;6390;49.400;8.670;2022-10-31T08:25:36;4.03;;;3.05;;
12650;SDS011;6390;49.400;8.670;2022-10-31T08:28:03;3.33;;;3.00;;
12650;SDS011;6390;49.400;8.670;2022-10-31T08:30:30;5.20;;;3.28;;
12650;SDS011;6390;49.400;8.670;2022-10-31T08:33:09;4.45;;;3.30;;
12650;SDS011;6390;49.400;8.670;2022-10-31T08:35:41;3.13;;;2.80;;
12650;SDS011;6390;49.400;8.670;2022-10-31T08:38:08;4.22;;;2.95;;
12650;SDS011;6390;49.400;8.670;2022-10-31T08:40:36;3.88;;;3.35;;
12650;SDS011;6390;49.400;8.670;2022-10-31T08:43:04;4.00;;;3.20;;
12650;SDS011;6390;49.400;8.670;2022-10-31T08:45:38;5.50;;;3.50;;
12650;SDS011;6390;49.400;8.670;2022-10-31T08:48:06;3.42;;;3.13;;
12650;SDS011;6390;49.400;8.670;2022-10-31T08:50:36;3.60;;;3.30;;
12650;SDS011;6390;49.400;8.670;2022-10-31T08:53:03;3.97;;;3.20;;
12650;SDS011;6390;49.400;8.670;2022-10-31T08:55:40;4.20;;;3.30;;
12650;SDS011;6390;49.400;8.670;2022-10-31T08:58:09;4.90;;;3.60;;
12650;SDS011;6390;49.400;8.670;2022-10-31T09:00:38;5.63;;;3.58;;
12650;SDS011;6390;49.400;8.670;2022-10-31T09:03:05;5.05;;;3.50;;
12650;SDS011;6390;49.400;8.670;2022-10-31T09:05:35;4.30;;;3.42;;
12650;SDS011;6390;49.400;8.670;2022-10-31T09:08:02;4.25;;;3.85;;
12650;SDS011;6390;49.400;8.670;2022-10-31T09:10:30;4.00;;;3.60;;
12650;SDS011;6390;49.400;8.670;2022-10-31T09:12:58;4.35;;;3.70;;
12650;SDS011;6390;49.400;8.670;2022-10-31T09:15:26;6.35;;;3.80;;
12650;SDS011;6390;49.400;8.670;2022-10-31T09:17:53;4.90;;;3.95;;
12650;SDS011;6390;49.400;8.670;2022-10-31T09:20:20;3.88;;;3.40;;
12650;SDS011;6390;49.400;8.670;2022-10-31T09:22:46;4.45;;;3.65;;
12650;SDS011;6390;49.400;8.670;2022-10-31T09:25:12;3.83;;;3.42;;
12650;SDS011;6390;49.400;8.670;2022-10-31T09:27:39;5.15;;;3.75;;
12650;SDS011;6390;49.400;8.670;2022-10-31T09:30:05;6.20;;;4.10;;
12650;SDS011;6390;49.400;8.670;2022-10-31T09:32:32;6.78;;;3.80;;
12650;SDS011;6390;49.400;8.670;2022-10-31T09:34:58;5.78;;;3.67;;
12650;SDS011;6390;49.400;8.670;2022-10-31T09:37:24;5.50;;;3.60;;
12650;SDS011;6390;49.400;8.670;2022-10-31T09:39:50;6.25;;;3.78;;
12650;SDS011;6390;49.400;8.670;2022-10-31T09:42:33;4.30;;;3.90;;
12650;SDS011;6390;49.400;8.670;2022-10-31T09:45:21;4.35;;;3.45;;
12650;SDS011;6390;49.400;8.670;2022-10-31T09:48:13;3.95;;;3.55;;
12650;SDS011;6390;49.400;8.670;2022-10-31T09:51:08;5.93;;;3.80;;
12650;SDS011;6390;49.400;8.670;2022-10-31T09:56:15;4.85;;;3.72;;
12650;SDS011;6390;49.400;8.670;2022-10-31T09:58:45;4.20;;;3.80;;
12650;SDS011;6390;49.400;8.670;2022-10-31T10:01:29;4.00;;;3.60;;
12650;SDS011;6390;49.400;8.670;2022-10-31T10:07:08;6.38;;;4.00;;
12650;SDS011;6390;49.400;8.670;2022-10-31T10:10:05;3.90;;;3.40;;
12650;SDS011;6390;49.400;8.670;2022-10-31T10:15:57;5.88;;;3.55;;
12650;SDS011;6390;49.400;8.670;2022-10-31T10:21:46;5.53;;;3.88;;
12650;SDS011;6390;49.400;8.670;2022-10-31T10:28:37;3.58;;;3.22;;
12650;SDS011;6390;49.400;8.670;2022-10-31T10:33:55;4.28;;;3.13;;
12650;SDS011;6390;49.400;8.670;2022-10-31T10:36:18;3.88;;;3.17;;
12650;SDS011;6390;49.400;8.670;2022-10-31T10:38:55;3.65;;;3.17;;
12650;SDS011;6390;49.400;8.670;2022-10-31T10:41:27;3.97;;;3.25;;
12650;SDS011;6390;49.400;8.670;2022-10-31T10:43:57;4.35;;;3.05;;
12650;SDS011;6390;49.400;8.670;2022-10-31T10:52:27;6.05;;;3.30;;
12650;SDS011;6390;49.400;8.670;2022-10-31T10:55:05;3.90;;;3.00;;
12650;SDS011;6390;49.400;8.670;2022-10-31T11:00:38;3.47;;;3.17;;
12650;SDS011;6390;49.400;8.670;2022-10-31T11:03:11;3.83;;;2.92;;
12650;SDS011;6390;49.400;8.670;2022-10-31T11:05:47;3.88;;;3.25;;
12650;SDS011;6390;49.400;8.670;2022-10-31T11:08:25;3.60;;;3.28;;
12650;SDS011;6390;49.400;8.670;2022-10-31T11:11:02;4.05;;;3.20;;
12650;SDS011;6390;49.400;8.670;2022-10-31T11:13:46;4.55;;;3.25;;
12650;SDS011;6390;49.400;8.670;2022-10-31T11:16:15;3.28;;;2.97;;
12650;SDS011;6390;49.400;8.670;2022-10-31T11:18:52;4.25;;;3.65;;
12650;SDS011;6390;49.400;8.670;2022-10-31T11:21:20;3.53;;;3.22;;
12650;SDS011;6390;49.400;8.670;2022-10-31T11:26:38;3.53;;;3.05;;
12650;SDS011;6390;49.400;8.670;2022-10-31T11:29:23;4.40;;;3.20;;
12650;SDS011;6390;49.400;8.670;2022-10-31T11:31:55;3.70;;;3.40;;
12650;SDS011;6390;49.400;8.670;2022-10-31T11:34:35;3.90;;;3.13;;
12650;SDS011;6390;49.400;8.670;2022-10-31T11:37:18;4.57;;;3.50;;
12650;SDS011;6390;49.400;8.670;2022-10-31T11:39:49;8.02;;;3.42;;
12650;SDS011;6390;49.400;8.670;2022-10-31T11:42:27;5.47;;;3.28;;
12650;SDS011;6390;49.400;8.670;2022-10-31T11:45:02;4.00;;;3.17;;
12650;SDS011;6390;49.400;8.670;2022-10-31T11:47:40;3.83;;;3.40;;
12650;SDS011;6390;49.400;8.670;2022-10-31T11:50:09;4.82;;;3.63;;
12650;SDS011;6390;49.400;8.670;2022-10-31T11:52:45;6.72;;;3.58;;
12650;SDS011;6390;49.400;8.670;2022-10-31T11:57:44;4.35;;;3.70;;
12650;SDS011;6390;49.400;8.670;2022-10-31T12:00:24;4.22;;;3.83;;
12650;SDS011;6390;49.400;8.670;2022-10-31T12:06:01;4.93;;;3.40;;
12650;SDS011;6390;49.400;8.670;2022-10-31T12:08:38;5.03;;;3.42;;
12650;SDS011;6390;49.400;8.670;2022-10-31T12:13:54;3.83;;;3.42;;
12650;SDS011;6390;49.400;8.670;2022-10-31T12:16:42;3.88;;;3.45;;
12650;SDS011;6390;49.400;8.670;2022-10-31T12:19:41;3.35;;;3.05;;
12650;SDS011;6390;49.400;8.670;2022-10-31T12:22:52;4.38;;;3.30;;
12650;SDS011;6390;49.400;8.670;2022-10-31T12:31:04;4.20;;;3.65;;
12650;SDS011;6390;49.400;8.670;2022-10-31T12:39:43;4.97;;;4.13;;
12650;SDS011;6390;49.400;8.670;2022-10-31T12:45:50;9.32;;;3.72;;
12650;SDS011;6390;49.400;8.670;2022-10-31T12:51:26;5.22;;;3.70;;
12650;SDS011;6390;49.400;8.670;2022-10-31T12:54:22;4.47;;;3.42;;
12650;SDS011;6390;49.400;8.670;2022-10-31T12:57:23;5.15;;;3.78;;
12650;SDS011;6390;49.400;8.670;2022-10-31T13:00:07;3.92;;;3.47;;
12650;SDS011;6390;49.400;8.670;2022-10-31T13:05:13;4.63;;;3.63;;
12650;SDS011;6390;49.400;8.670;2022-10-31T13:25:54;5.90;;;3.58;;
12650;SDS011;6390;49.400;8.670;2022-10-31T13:30:54;4.15;;;3.50;;
12650;SDS011;6390;49.400;8.670;2022-10-31T13:33:25;4.50;;;3.88;;
12650;SDS011;6390;49.400;8.670;2022-10-31T13:36:03;4.97;;;3.47;;
12650;SDS011;6390;49.400;8.670;2022-10-31T13:38:49;4.93;;;3.70;;
12650;SDS011;6390;49.400;8.670;2022-10-31T13:46:45;16.38;;;3.95;;
12650;SDS011;6390;49.400;8.670;2022-10-31T13:52:05;4.70;;;4.20;;
12650;SDS011;6390;49.400;8.670;2022-10-31T13:54:32;4.00;;;3.42;;
12650;SDS011;6390;49.400;8.670;2022-10-31T13:56:59;4.90;;;3.35;;
12650;SDS011;6390;49.400;8.670;2022-10-31T13:59:26;5.05;;;3.38;;
12650;SDS011;6390;49.400;8.670;2022-10-31T14:01:58;4.65;;;3.70;;
12650;SDS011;6390;49.400;8.670;2022-10-31T14:04:27;4.03;;;3.45;;
12650;SDS011;6390;49.400;8.670;2022-10-31T14:07:06;5.15;;;3.60;;
12650;SDS011;6390;49.400;8.670;2022-10-31T14:09:54;3.92;;;3.60;;
12650;SDS011;6390;49.400;8.670;2022-10-31T14:12:43;4.55;;;4.05;;
12650;SDS011;6390;49.400;8.670;2022-10-31T15:39:12;9.07;;;4.15;;
12650;SDS011;6390;49.400;8.670;2022-10-31T15:44:26;6.47;;;4.80;;
12650;SDS011;6390;49.400;8.670;2022-10-31T15:46:56;6.80;;;4.68;;
12650;SDS011;6390;49.400;8.670;2022-10-31T15:52:12;6.13;;;4.45;;
12650;SDS011;6390;49.400;8.670;2022-10-31T15:54:51;5.15;;;4.20;;
12650;SDS011;6390;49.400;8.670;2022-10-31T15:57:23;5.07;;;4.32;;
12650;SDS011;6390;49.400;8.670;2022-10-31T15:59:53;6.60;;;4.45;;
12650;SDS011;6390;49.400;8.670;2022-10-31T16:02:21;5.97;;;4.25;;
12650;SDS011;6390;49.400;8.670;2022-10-31T16:04:50;6.45;;;4.43;;
12650;SDS011;6390;49.400;8.670;2022-10-31T16:07:20;5.18;;;3.88;;
12650;SDS011;6390;49.400;8.670;2022-10-31T16:09:51;6.72;;;4.38;;
12650;SDS011;6390;49.400;8.670;2022-10-31T16:12:18;5.38;;;3.90;;
12650;SDS011;6390;49.400;8.670;2022-10-31T16:14:45;4.82;;;4.10;;
12650;SDS011;6390;49.400;8.670;2022-10-31T16:17:12;6.55;;;4.38;;
12650;SDS011;6390;49.400;8.670;2022-10-31T16:19:51;4.57;;;3.72;;
12650;SDS011;6390;49.400;8.670;2022-10-31T16:22:21;6.90;;;4.25;;
12650;SDS011;6390;49.400;8.670;2022-10-31T16:27:34;7.05;;;3.75;;
12650;SDS011;6390;49.400;8.670;2022-10-31T16:30:02;5.13;;;4.63;;
12650;SDS011;6390;49.400;8.670;2022-10-31T16:32:54;4.50;;;4.00;;
12650;SDS011;6390;49.400;8.670;2022-10-31T16:35:33;4.95;;;3.80;;
12650;SDS011;6390;49.400;8.670;2022-10-31T16:38:04;6.53;;;4.40;;
12650;SDS011;6390;49.400;8.670;2022-10-31T16:40:30;8.02;;;4.75;;
12650;SDS011;6390;49.400;8.670;2022-10-31T16:42:58;5.97;;;5.10;;
12650;SDS011;6390;49.400;8.670;2022-10-31T16:45:26;7.15;;;5.47;;
12650;SDS011;6390;49.400;8.670;2022-10-31T16:47:55;8.85;;;6.40;;
12650;SDS011;6390;49.400;8.670;2022-10-31T16:50:30;6.80;;;5.88;;
12650;SDS011;6390;49.400;8.670;2022-10-31T16:52:57;5.63;;;5.03;;
12650;SDS011;6390;49.400;8.670;2022-10-31T16:55:23;6.38;;;4.95;;
12650;SDS011;6390;49.400;8.670;2022-10-31T16:57:50;5.43;;;4.88;;
12650;SDS011;6390;49.400;8.670;2022-10-31T17:00:21;9.13;;;5.10;;
12650;SDS011;6390;49.400;8.670;2022-10-31T17:02:51;5.72;;;4.65;;
12650;SDS011;6390;49.400;8.670;2022-10-31T17:05:21;6.68;;;4.65;;
12650;SDS011;6390;49.400;8.670;2022-10-31T17:07:54;6.63;;;5.15;;
12650;SDS011;6390;49.400;8.670;2022-10-31T17:10:24;6.13;;;5.05;;
12650;SDS011;6390;49.400;8.670;2022-10-31T17:12:50;7.63;;;5.43;;
12650;SDS011;6390;49.400;8.670;2022-10-31T17:17:48;7.25;;;5.80;;
12650;SDS011;6390;49.400;8.670;2022-10-31T17:20:19;13.88;;;7.72;;
12650;SDS011;6390;49.400;8.670;2022-10-31T17:22:48;6.75;;;5.22;;
12650;SDS011;6390;49.400;8.670;2022-10-31T17:25:19;7.13;;;5.68;;
12650;SDS011;6390;49.400;8.670;2022-10-31T17:27:51;5.20;;;4.50;;
12650;SDS011;6390;49.400;8.670;2022-10-31T17:30:18;7.82;;;4.90;;
12650;SDS011;6390;49.400;8.670;2022-10-31T17:32:46;5.18;;;4.25;;
12650;SDS011;6390;49.400;8.670;2022-10-31T17:35:13;6.18;;;4.95;;
12650;SDS011;6390;49.400;8.670;2022-10-31T17:37:41;8.57;;;5.07;;
12650;SDS011;6390;49.400;8.670;2022-10-31T17:40:08;6.90;;;4.80;;
12650;SDS011;6390;49.400;8.670;2022-10-31T17:42:39;15.00;;;11.13;;
12650;SDS011;6390;49.400;8.670;2022-10-31T17:45:05;13.68;;;11.05;;
12650;SDS011;6390;49.400;8.670;2022-10-31T17:47:33;11.25;;;9.35;;
12650;SDS011;6390;49.400;8.670;2022-10-31T17:50:00;11.70;;;9.45;;
12650;SDS011;6390;49.400;8.670;2022-10-31T17:52:27;10.15;;;7.82;;
12650;SDS011;6390;49.400;8.670;2022-10-31T17:54:53;10.48;;;7.38;;
12650;SDS011;6390;49.400;8.670;2022-10-31T17:57:19;8.90;;;6.53;;
12650;SDS011;6390;49.400;8.670;2022-10-31T17:59:45;8.43;;;5.43;;
12650;SDS011;6390;49.400;8.670;2022-10-31T18:02:11;7.00;;;5.00;;
12650;SDS011;6390;49.400;8.670;2022-10-31T18:04:37;8.07;;;5.28;;
12650;SDS011;6390;49.400;8.670;2022-10-31T18:07:06;7.40;;;5.47;;
12650;SDS011;6390;49.400;8.670;2022-10-31T18:09:33;8.02;;;6.15;;
12650;SDS011;6390;49.400;8.670;2022-10-31T18:11:59;7.30;;;6.55;;
12650;SDS011;6390;49.400;8.670;2022-10-31T18:14:25;10.27;;;8.25;;
12650;SDS011;6390;49.400;8.670;2022-10-31T18:16:53;10.77;;;8.35;;
12650;SDS011;6390;49.400;8.670;2022-10-31T18:19:19;10.82;;;7.40;;
12650;SDS011;6390;49.400;8.670;2022-10-31T18:21:45;11.73;;;8.07;;
12650;SDS011;6390;49.400;8.670;2022-10-31T18:24:11;8.85;;;6.97;;
12650;SDS011;6390;49.400;8.670;2022-10-31T18:26:38;9.75;;;6.82;;
12650;SDS011;6390;49.400;8.670;2022-10-31T18:29:04;10.63;;;8.07;;
12650;SDS011;6390;49.400;8.670;2022-10-31T18:31:30;10.25;;;8.05;;
12650;SDS011;6390;49.400;8.670;2022-10-31T18:33:56;13.95;;;9.52;;
12650;SDS011;6390;49.400;8.670;2022-10-31T18:36:23;11.50;;;9.48;;
12650;SDS011;6390;49.400;8.670;2022-10-31T18:38:49;14.15;;;9.90;;
12650;SDS011;6390;49.400;8.670;2022-10-31T18:41:15;10.55;;;8.30;;
12650;SDS011;6390;49.400;8.670;2022-10-31T18:43:41;10.90;;;9.13;;
12650;SDS011;6390;49.400;8.670;2022-10-31T18:46:12;9.80;;;8.48;;
12650;SDS011;6390;49.400;8.670;2022-10-31T18:48:40;10.93;;;9.13;;
12650;SDS011;6390;49.400;8.670;2022-10-31T18:51:08;12.18;;;8.32;;
12650;SDS011;6390;49.400;8.670;2022-10-31T18:53:37;14.52;;;8.30;;
12650;SDS011;6390;49.400;8.670;2022-10-31T18:56:07;10.70;;;8.27;;
12650;SDS011;6390;49.400;8.670;2022-10-31T18:58:34;8.55;;;7.35;;
12650;SDS011;6390;49.400;8.670;2022-10-31T19:01:04;10.23;;;6.85;;
12650;SDS011;6390;49.400;8.670;2022-10-31T19:03:32;9.27;;;6.38;;
12650;SDS011;6390;49.400;8.670;2022-10-31T19:05:58;6.80;;;6.10;;
12650;SDS011;6390;49.400;8.670;2022-10-31T19:08:24;6.82;;;5.80;;
12650;SDS011;6390;49.400;8.670;2022-10-31T19:10:50;7.20;;;5.45;;
12650;SDS011;6390;49.400;8.670;2022-10-31T19:13:17;6.70;;;5.63;;
12650;SDS011;6390;49.400;8.670;2022-10-31T19:15:43;7.25;;;5.50;;
12650;SDS011;6390;49.400;8.670;2022-10-31T19:18:09;7.93;;;5.97;;
12650;SDS011;6390;49.400;8.670;2022-10-31T19:20:36;7.88;;;5.63;;
12650;SDS011;6390;49.400;8.670;2022-10-31T19:23:03;8.40;;;6.13;;
12650;SDS011;6390;49.400;8.670;2022-10-31T19:25:30;8.70;;;6.35;;
12650;SDS011;6390;49.400;8.670;2022-10-31T19:27:56;7.05;;;5.20;;
12650;SDS011;6390;49.400;8.670;2022-10-31T19:30:23;7.00;;;5.45;;
12650;SDS011;6390;49.400;8.670;2022-10-31T19:32:52;7.53;;;6.40;;
12650;SDS011;6390;49.400;8.670;2022-10-31T19:35:19;9.38;;;6.20;;
12650;SDS011;6390;49.400;8.670;2022-10-31T19:37:46;10.52;;;6.07;;
12650;SDS011;6390;49.400;8.670;2022-10-31T19:40:12;7.45;;;5.97;;
12650;SDS011;6390;49.400;8.670;2022-10-31T19:42:38;7.65;;;6.00;;
12650;SDS011;6390;49.400;8.670;2022-10-31T19:45:04;9.93;;;6.50;;
12650;SDS011;6390;49.400;8.670;2022-10-31T19:47:31;9.30;;;6.68;;
12650;SDS011;6390;49.400;8.670;2022-10-31T19:49:58;7.72;;;5.82;;
12650;SDS011;6390;49.400;8.670;2022-10-31T19:52:24;25.15;;;13.95;;
12650;SDS011;6390;49.400;8.670;2022-10-31T19:54:50;18.35;;;13.27;;
12650;SDS011;6390;49.400;8.670;2022-10-31T19:57:16;17.48;;;11.63;;
12650;SDS011;6390;49.400;8.670;2022-10-31T19:59:42;11.32;;;9.30;;
12650;SDS011;6390;49.400;8.670;2022-10-31T20:02:10;9.63;;;8.27;;
12650;SDS011;6390;49.400;8.670;2022-10-31T20:04:43;13.25;;;10.35;;
12650;SDS011;6390;49.400;8.670;2022-10-31T20:07:10;11.73;;;9.50;;
12650;SDS011;6390;49.400;8.670;2022-10-31T20:09:36;13.52;;;10.65;;
12650;SDS011;6390;49.400;8.670;2022-10-31T20:12:02;13.05;;;11.60;;
12650;SDS011;6390;49.400;8.670;2022-10-31T20:14:28;12.63;;;10.02;;
12650;SDS011;6390;49.400;8.670;2022-10-31T20:16:54;8.68;;;7.75;;
12650;SDS011;6390;49.400;8.670;2022-10-31T20:19:20;9.30;;;7.63;;
12650;SDS011;6390;49.400;8.670;2022-10-31T20:21:48;8.90;;;6.30;;
12650;SDS011;6390;49.400;8.670;2022-10-31T20:24:14;8.00;;;5.70;;
12650;SDS011;6390;49.400;8.670;2022-10-31T20:26:40;6.95;;;6.22;;
12650;SDS011;6390;49.400;8.670;2022-10-31T20:29:06;7.85;;;6.22;;
12650;SDS011;6390;49.400;8.670;2022-10-31T20:31:36;6.90;;;5.32;;
12650;SDS011;6390;49.400;8.670;2022-10-31T20:34:03;8.15;;;6.47;;
12650;SDS011;6390;49.400;8.670;2022-10-31T20:36:30;6.90;;;6.03;;
12650;SDS011;6390;49.400;8.670;2022-10-31T20:38:56;8.05;;;6.75;;
12650;SDS011;6390;49.400;8.670;2022-10-31T20:41:23;7.65;;;6.85;;
12650;SDS011;6390;49.400;8.670;2022-10-31T20:43:49;7.88;;;6.65;;
12650;SDS011;6390;49.400;8.670;2022-10-31T20:46:16;10.32;;;7.22;;
12650;SDS011;6390;49.400;8.670;2022-10-31T20:48:48;7.88;;;7.07;;
12650;SDS011;6390;49.400;8.670;2022-10-31T20:51:16;12.68;;;7.82;;
12650;SDS011;6390;49.400;8.670;2022-10-31T20:53:45;10.35;;;7.43;;
12650;SDS011;6390;49.400;8.670;2022-10-31T20:56:13;8.20;;;6.35;;
12650;SDS011;6390;49.400;8.670;2022-10-31T20:58:42;7.55;;;6.68;;
12650;SDS011;6390;49.400;8.670;2022-10-31T21:01:13;7.97;;;6.95;;
12650;SDS011;6390;49.400;8.670;2022-10-31T21:03:41;7.30;;;6.53;;
12650;SDS011;6390;49.400;8.670;2022-10-31T21:06:08;9.52;;;6.07;;
12650;SDS011;6390;49.400;8.670;2022-10-31T21:08:34;8.43;;;6.45;;
12650;SDS011;6390;49.400;8.670;2022-10-31T21:11:03;6.65;;;5.35;;
12650;SDS011;6390;49.400;8.670;2022-10-31T21:13:36;7.43;;;6.53;;
12650;SDS011;6390;49.400;8.670;2022-10-31T21:16:05;8.77;;;6.10;;
12650;SDS011;6390;49.400;8.670;2022-10-31T21:18:35;9.25;;;6.13;;
12650;SDS011;6390;49.400;8.670;2022-10-31T21:21:18;9.18;;;5.78;;
12650;SDS011;6390;49.400;8.670;2022-10-31T21:24:04;6.85;;;5.68;;
12650;SDS011;6390;49.400;8.670;2022-10-31T21:26:35;7.75;;;6.32;;
12650;SDS011;6390;49.400;8.670;2022-10-31T21:29:04;8.23;;;6.50;;
12650;SDS011;6390;49.400;8.670;2022-10-31T21:31:31;8.00;;;6.80;;
12650;SDS011;6390;49.400;8.670;2022-10-31T21:33:59;9.02;;;6.68;;
12650;SDS011;6390;49.400;8.670;2022-10-31T21:36:25;8.32;;;6.05;;
12650;SDS011;6390;49.400;8.670;2022-10-31T21:38:51;11.27;;;6.07;;
12650;SDS011;6390;49.400;8.670;2022-10-31T21:41:19;9.20;;;6.65;;
12650;SDS011;6390;49.400;8.670;2022-10-31T21:43:46;7.53;;;6.07;;
12650;SDS011;6390;49.400;8.670;2022-10-31T21:46:14;9.88;;;6.63;;
12650;SDS011;6390;49.400;8.670;2022-10-31T21:48:46;8.20;;;5.97;;
12650;SDS011;6390;49.400;8.670;2022-10-31T21:51:13;7.63;;;5.93;;
12650;SDS011;6390;49.400;8.670;2022-10-31T21:53:50;7.90;;;6.25;;
12650;SDS011;6390;49.400;8.670;2022-10-31T21:56:36;8.10;;;6.47;;
12650;SDS011;6390;49.400;8.670;2022-10-31T21:59:03;7.72;;;6.22;;
12650;SDS011;6390;49.400;8.670;2022-10-31T22:01:30;9.25;;;6.30;;
12650;SDS011;6390;49.400;8.670;2022-10-31T22:03:57;8.55;;;5.70;;
12650;SDS011;6390;49.400;8.670;2022-10-31T22:06:23;8.75;;;5.75;;
12650;SDS011;6390;49.400;8.670;2022-10-31T22:08:50;7.28;;;5.90;;
12650;SDS011;6390;49.400;8.670;2022-10-31T22:11:17;9.38;;;6.28;;
12650;SDS011;6390;49.400;8.670;2022-10-31T22:13:44;8.45;;;6.45;;
12650;SDS011;6390;49.400;8.670;2022-10-31T22:16:13;9.70;;;7.43;;
12650;SDS011;6390;49.400;8.670;2022-10-31T22:18:44;11.73;;;7.80;;
12650;SDS011;6390;49.400;8.670;2022-10-31T22:21:12;9.73;;;7.90;;
12650;SDS011;6390;49.400;8.670;2022-10-31T22:23:43;9.27;;;7.28;;
12650;SDS011;6390;49.400;8.670;2022-10-31T22:26:13;9.88;;;6.95;;
12650;SDS011;6390;49.400;8.670;2022-10-31T22:28:40;8.68;;;6.55;;
12650;SDS011;6390;49.400;8.670;2022-10-31T22:31:08;7.75;;;6.35;;